Time;durP1;ratioP1;P1;durP2;ratioP2;P2;SDS_P1;SDS_P2;PMS_P1;PMS_P2;Temp;Humidity;BMP_temperature;BMP_pressure;BME280_temperature;BME280_humidity;BME280_pressure;Samples;Min_cycle;Max_cycle;Signal;HPM_P1;HPM_P2
2022/01/01 00:01:28;;;;;;;40.40;10.10;;;;;;;19.37;59.11;102284.50;4972178;28;20043;-69
2022/01/01 00:03:54;;;;;;;40.80;10.43;;;;;;;19.37;59.94;102297.81;4939068;28;20047;-69
2022/01/01 00:06:19;;;;;;;30.27;8.65;;;;;;;19.32;59.39;102297.28;4971748;28;20070;-69
2022/01/01 00:08:45;;;;;;;35.65;10.02;;;;;;;19.35;59.59;102289.91;4971559;28;20046;-69
2022/01/01 00:11:10;;;;;;;38.25;9.35;;;;;;;19.31;60.04;102287.59;4954439;28;20050;-69
2022/01/01 00:13:35;;;;;;;36.55;9.18;;;;;;;19.31;59.76;102287.59;4972022;28;20750;-69
2022/01/01 00:16:01;;;;;;;36.15;9.10;;;;;;;19.27;59.24;102292.25;4954203;28;20063;-68
2022/01/01 00:18:26;;;;;;;29.02;9.13;;;;;;;19.25;59.08;102293.34;4971073;28;20399;-69
2022/01/01 00:20:52;;;;;;;31.38;9.18;;;;;;;19.25;59.44;102288.88;4971949;28;20042;-69
2022/01/01 00:23:17;;;;;;;31.38;8.93;;;;;;;19.24;59.16;102296.94;4954122;28;20646;-68
2022/01/01 00:25:43;;;;;;;35.33;8.85;;;;;;;19.22;59.30;102294.41;4970997;28;20479;-69
2022/01/01 00:28:09;;;;;;;29.92;8.10;;;;;;;19.18;59.98;102293.78;4969070;28;20608;-69
2022/01/01 00:30:35;;;;;;;29.27;8.07;;;;;;;19.19;59.94;102292.81;4972096;28;20035;-69
2022/01/01 00:33:00;;;;;;;29.88;8.25;;;;;;;19.15;59.61;102286.03;4971408;28;20455;-66
2022/01/01 00:35:26;;;;;;;32.72;8.13;;;;;;;19.13;58.89;102281.75;4954237;28;20041;-69
2022/01/01 00:37:51;;;;;;;29.55;7.93;;;;;;;19.12;59.15;102282.72;4953973;28;20066;-69
2022/01/01 00:40:19;;;;;;;29.58;8.40;;;;;;;19.10;59.18;102277.50;4971107;28;20507;-68
2022/01/01 00:42:44;;;;;;;25.75;8.23;;;;;;;19.10;59.88;102282.81;4971703;28;20035;-69
2022/01/01 00:45:10;;;;;;;30.90;8.48;;;;;;;19.05;59.72;102287.59;4953506;28;20093;-68
2022/01/01 00:47:35;;;;;;;25.92;7.55;;;;;;;19.05;59.61;102287.59;4971514;28;20038;-69
2022/01/01 00:50:01;;;;;;;25.40;7.57;;;;;;;19.04;59.15;102280.59;4971100;28;20407;-68
2022/01/01 00:52:26;;;;;;;25.70;7.30;;;;;;;19.09;59.16;102283.78;4971296;28;20042;-69
2022/01/01 00:54:52;;;;;;;25.23;7.45;;;;;;;19.04;59.07;102280.59;4953723;28;20050;-69
2022/01/01 00:57:17;;;;;;;25.33;7.53;;;;;;;19.02;59.79;102292.28;4970999;28;20043;-69
2022/01/01 00:59:43;;;;;;;24.88;8.63;;;;;;;19.00;59.71;102304.84;4954153;28;20086;-69
2022/01/01 01:02:08;;;;;;;25.75;7.60;;;;;;;19.02;58.97;102308.25;4970917;28;20419;-69
2022/01/01 01:04:34;;;;;;;22.92;7.63;;;;;;;18.98;59.52;102307.59;4970851;28;20039;-69
2022/01/01 01:06:59;;;;;;;24.42;7.68;;;;;;;19.00;59.39;102321.66;4971401;28;20603;-69
2022/01/01 01:09:25;;;;;;;20.52;6.95;;;;;;;19.00;59.29;102323.47;4970612;28;20035;-69
2022/01/01 01:11:52;;;;;;;23.02;7.15;;;;;;;18.99;58.80;102327.06;4971090;28;20134;-69
2022/01/01 01:14:26;;;;;;;23.42;7.45;;;;;;;18.95;59.49;102331.75;4970572;28;20051;-69
2022/01/01 01:16:52;;;;;;;24.23;7.20;;;;;;;18.95;59.48;102329.09;4954892;28;20117;-69
2022/01/01 01:19:18;;;;;;;20.98;7.22;;;;;;;18.94;59.51;102324.75;4970553;28;20515;-69
2022/01/01 01:21:44;;;;;;;21.48;7.40;;;;;;;18.89;58.79;102326.84;4953544;28;20089;-69
2022/01/01 01:24:10;;;;;;;21.45;6.70;;;;;;;18.86;59.39;102335.91;4970512;28;20043;-68
2022/01/01 01:26:35;;;;;;;22.95;7.15;;;;;;;18.91;58.99;102319.63;4965064;28;20039;-69
2022/01/01 01:29:03;;;;;;;20.20;6.68;;;;;;;18.88;59.37;102334.00;4970425;28;20069;-68
2022/01/01 01:31:29;;;;;;;22.13;6.63;;;;;;;18.85;58.90;102333.34;4953613;28;20116;-69
2022/01/01 01:33:55;;;;;;;22.15;7.55;;;;;;;18.87;58.97;102331.44;4953615;28;20068;-67
2022/01/01 01:36:20;;;;;;;18.63;6.72;;;;;;;18.84;58.86;102327.19;4969802;28;20057;-69
2022/01/01 01:38:45;;;;;;;17.30;5.90;;;;;;;18.84;58.90;102323.69;4970574;28;20411;-69
2022/01/01 01:41:11;;;;;;;22.42;6.43;;;;;;;18.82;58.98;102325.59;4952845;28;20506;-68
2022/01/01 01:43:36;;;;;;;18.60;6.50;;;;;;;18.79;59.29;102313.34;4953521;28;20038;-69
2022/01/01 01:46:05;;;;;;;19.10;6.53;;;;;;;18.80;58.88;102312.38;4949445;28;20567;-69
2022/01/01 01:48:31;;;;;;;19.73;6.10;;;;;;;18.80;59.65;102314.19;4951901;28;20039;-69
2022/01/01 01:50:57;;;;;;;17.70;5.72;;;;;;;18.79;58.78;102328.44;4950074;28;20043;-69
2022/01/01 01:53:22;;;;;;;16.90;5.72;;;;;;;18.78;59.07;102321.44;4950572;28;20451;-69
2022/01/01 01:55:48;;;;;;;19.77;5.60;;;;;;;18.79;58.90;102323.13;4961525;28;20411;-69
2022/01/01 01:58:13;;;;;;;18.48;6.00;;;;;;;18.76;58.70;102323.34;4952564;28;20504;-69
2022/01/01 02:03:23;;;;;;;17.35;5.60;;;;;;;18.75;59.08;102321.66;4969090;28;20106;-69
2022/01/01 02:05:48;;;;;;;21.52;6.00;;;;;;;18.75;58.69;102316.31;4969572;28;20042;-69
2022/01/01 02:08:14;;;;;;;16.35;5.53;;;;;;;18.75;58.98;102321.66;4936521;28;20408;-69
2022/01/01 02:10:40;;;;;;;18.50;6.00;;;;;;;18.75;58.91;102332.28;4952257;28;20046;-69
2022/01/01 02:13:12;;;;;;;18.67;5.85;;;;;;;18.73;59.36;102327.91;4969472;28;20133;-68
2022/01/01 02:18:18;;;;;;;19.40;5.85;;;;;;;18.68;58.99;102323.84;4954195;28;20476;-69
2022/01/01 02:20:49;;;;;;;17.58;5.03;;;;;;;18.69;58.82;102321.06;4969992;28;20400;-69
2022/01/01 02:23:22;;;;;;;16.50;6.28;;;;;;;18.69;59.17;102323.72;4953060;28;20043;-69
2022/01/01 02:25:51;;;;;;;16.15;4.85;;;;;;;18.68;58.88;102319.38;4949157;29;20039;-69
2022/01/01 02:28:17;;;;;;;13.05;5.00;;;;;;;18.65;59.10;102303.63;4948807;28;20079;-69
2022/01/01 02:30:43;;;;;;;15.70;4.80;;;;;;;18.66;59.34;102307.13;4954687;28;20480;-69
2022/01/01 02:33:08;;;;;;;12.77;5.00;;;;;;;18.64;59.11;102309.88;4969614;28;20396;-69
2022/01/01 02:35:34;;;;;;;13.63;5.20;;;;;;;18.64;58.57;102307.22;4955520;28;20041;-69
2022/01/01 02:37:59;;;;;;;16.27;5.30;;;;;;;18.65;58.95;102319.56;4969824;28;20701;-69
2022/01/01 02:40:25;;;;;;;16.98;5.28;;;;;;;18.65;58.55;102319.56;4951651;28;20153;-69
2022/01/01 02:42:51;;;;;;;14.38;4.93;;;;;;;18.64;59.00;102325.81;4969140;28;20120;-69
2022/01/01 02:45:17;;;;;;;15.45;4.80;;;;;;;18.61;58.67;102323.38;4969076;28;20063;-69
2022/01/01 02:47:42;;;;;;;13.40;4.43;;;;;;;18.61;58.87;102331.34;4969401;28;20141;-69
2022/01/01 02:50:08;;;;;;;14.95;4.60;;;;;;;18.57;59.04;102327.22;4968947;28;20086;-69
2022/01/01 02:52:34;;;;;;;15.27;4.63;;;;;;;18.57;59.41;102329.00;4968837;28;20049;-69
2022/01/01 02:54:59;;;;;;;13.05;4.53;;;;;;;18.59;58.69;102330.63;4936324;28;20724;-69
2022/01/01 02:57:24;;;;;;;16.17;4.50;;;;;;;18.54;59.45;102330.06;4968859;28;20055;-69
2022/01/01 02:59:50;;;;;;;14.02;4.47;;;;;;;18.55;59.16;102337.09;4968203;28;20470;-69
2022/01/01 03:02:15;;;;;;;11.50;4.22;;;;;;;18.54;59.01;102321.25;4960640;28;20147;-69
2022/01/01 03:04:41;;;;;;;13.57;4.05;;;;;;;18.52;59.27;102310.72;4964578;28;20066;-69
2022/01/01 03:07:07;;;;;;;15.35;4.65;;;;;;;18.53;59.01;102301.78;4949710;28;20518;-69
2022/01/01 03:09:35;;;;;;;13.73;4.45;;;;;;;18.52;58.75;102300.09;4932946;29;20039;-69
2022/01/01 03:12:04;;;;;;;14.55;4.25;;;;;;;18.54;58.62;102303.50;4951538;28;20043;-68
2022/01/01 03:14:30;;;;;;;12.40;4.37;;;;;;;18.55;58.48;102299.91;4947893;28;20469;-70
2022/01/01 03:16:55;;;;;;;13.32;4.30;;;;;;;18.54;59.10;102306.16;4927749;28;20063;-70
2022/01/01 03:19:21;;;;;;;11.98;4.25;;;;;;;18.48;58.90;102304.75;4969201;28;20120;-69
2022/01/01 03:21:47;;;;;;;14.15;3.92;;;;;;;18.48;59.08;102310.06;4952780;28;20061;-70
2022/01/01 03:24:12;;;;;;;12.55;4.20;;;;;;;18.48;59.13;102309.22;4952690;28;20045;-69
2022/01/01 03:26:37;;;;;;;11.38;3.75;;;;;;;18.47;59.17;102307.53;4951537;28;20043;-70
2022/01/01 03:29:03;;;;;;;14.10;4.03;;;;;;;18.47;58.69;102297.72;4951174;28;20380;-69
2022/01/01 03:31:28;;;;;;;10.52;3.35;;;;;;;18.47;59.43;102296.88;4965920;28;20046;-69
2022/01/01 03:33:54;;;;;;;12.52;4.10;;;;;;;18.52;58.71;102293.91;4971402;28;20047;-66
2022/01/01 03:36:19;;;;;;;13.27;3.95;;;;;;;18.55;58.98;102299.91;4963991;28;20059;-69
2022/01/01 03:38:45;;;;;;;12.18;3.63;;;;;;;18.49;58.74;102305.63;4951974;28;20510;-69
2022/01/01 03:41:10;;;;;;;10.45;3.67;;;;;;;18.48;58.53;102298.59;4951725;28;20059;-69
2022/01/01 03:43:36;;;;;;;9.98;3.70;;;;;;;18.45;58.61;102304.94;4949165;28;20036;-69
2022/01/01 03:46:01;;;;;;;10.93;3.92;;;;;;;18.45;58.91;102306.75;4951547;28;20041;-68
2022/01/01 03:48:27;;;;;;;10.25;3.83;;;;;;;18.44;59.45;102313.03;4951952;28;20057;-69
2022/01/01 03:50:53;;;;;;;10.63;3.78;;;;;;;18.45;59.01;102312.06;4953385;28;20122;-69
2022/01/01 03:53:18;;;;;;;13.07;3.80;;;;;;;18.44;59.14;102310.38;4962198;28;20456;-69
2022/01/01 03:55:43;;;;;;;12.55;4.30;;;;;;;18.43;58.80;102304.22;4951822;28;20047;-69
2022/01/01 03:58:09;;;;;;;10.80;3.65;;;;;;;18.42;58.93;102314.94;4951164;28;20561;-69
2022/01/01 04:00:34;;;;;;;13.98;3.55;;;;;;;18.45;58.94;102312.06;4951298;28;20703;-69
2022/01/01 04:03:11;;;;;;;12.50;4.03;;;;;;;18.40;59.37;102311.56;4962854;28;20047;-69
2022/01/01 04:05:37;;;;;;;10.07;3.58;;;;;;;18.42;58.59;102310.47;4968936;28;20047;-69
2022/01/01 04:08:03;;;;;;;12.30;3.65;;;;;;;18.44;58.75;102315.69;4953044;28;20669;-68
2022/01/01 04:10:31;;;;;;;12.95;3.90;;;;;;;18.43;58.81;102316.66;4971081;28;20507;-69
2022/01/01 04:12:57;;;;;;;9.18;3.63;;;;;;;18.44;58.71;102315.69;4972091;28;20138;-69
2022/01/01 04:15:23;;;;;;;8.95;3.60;;;;;;;18.43;59.02;102306.03;4953854;28;20047;-69
2022/01/01 04:17:48;;;;;;;8.45;3.50;;;;;;;18.45;58.79;102309.41;4954641;28;20047;-69
2022/01/01 04:20:14;;;;;;;12.68;3.60;;;;;;;18.43;58.51;102316.66;4954421;28;20046;-69
2022/01/01 04:22:39;;;;;;;9.68;3.50;;;;;;;18.41;58.54;102305.28;4951149;29;20077;-69
2022/01/01 04:25:05;;;;;;;9.77;3.63;;;;;;;18.38;59.25;102308.13;4969308;28;20458;-69
2022/01/01 04:27:30;;;;;;;10.35;3.38;;;;;;;18.37;58.76;102322.38;4954079;28;20435;-69
2022/01/01 04:29:56;;;;;;;11.32;3.75;;;;;;;18.39;58.96;102317.78;4971723;28;20051;-69
2022/01/01 04:32:21;;;;;;;11.50;3.53;;;;;;;18.42;58.74;102322.91;4970416;28;20106;-69
2022/01/01 04:34:47;;;;;;;9.57;3.25;;;;;;;18.40;58.88;102322.19;4971303;28;20077;-69
2022/01/01 04:37:15;;;;;;;8.82;3.60;;;;;;;18.36;58.57;102321.50;4953589;28;20488;-69
2022/01/01 04:39:40;;;;;;;10.45;3.80;;;;;;;18.38;58.67;102330.25;4971615;28;20130;-69
2022/01/01 04:42:06;;;;;;;10.20;3.42;;;;;;;18.37;58.78;102323.22;4953700;28;20515;-68
2022/01/01 04:44:31;;;;;;;9.27;3.40;;;;;;;18.36;58.60;102320.66;4953908;28;20130;-69
2022/01/01 04:46:57;;;;;;;9.32;3.58;;;;;;;18.37;59.11;102325.88;4971858;28;20031;-69
2022/01/01 04:49:22;;;;;;;10.25;3.90;;;;;;;18.39;58.55;102320.47;4971364;28;20039;-69
2022/01/01 04:51:49;;;;;;;10.70;3.72;;;;;;;18.41;58.76;102318.56;4954278;28;20057;-69
2022/01/01 04:54:17;;;;;;;10.93;3.70;;;;;;;18.40;58.65;102316.88;4953312;28;20066;-68
2022/01/01 04:56:47;;;;;;;10.23;3.65;;;;;;;18.36;58.54;102302.06;4971663;28;20031;-69
2022/01/01 04:59:13;;;;;;;11.32;3.58;;;;;;;18.35;58.53;102308.34;4971117;28;20157;-69
2022/01/01 05:01:39;;;;;;;10.00;3.47;;;;;;;18.34;58.57;102302.19;4954065;28;20090;-69
2022/01/01 05:04:05;;;;;;;7.85;3.28;;;;;;;18.36;59.08;102304.72;4949952;28;20126;-69
2022/01/01 05:06:30;;;;;;;9.05;3.70;;;;;;;18.36;58.78;102300.25;4934413;29;20035;-69
2022/01/01 05:08:56;;;;;;;8.85;3.28;;;;;;;18.36;58.25;102304.72;4951994;28;20043;-69
2022/01/01 05:11:21;;;;;;;11.18;3.40;;;;;;;18.35;58.54;102295.06;4951284;28;20062;-69
2022/01/01 05:13:47;;;;;;;8.85;3.17;;;;;;;18.34;58.65;102296.00;4963036;28;20043;-69
2022/01/01 05:16:16;;;;;;;10.02;3.45;;;;;;;18.32;58.81;102306.72;4970216;28;20046;-68
2022/01/01 05:18:42;;;;;;;11.20;3.38;;;;;;;18.33;59.11;102304.91;4954271;28;20043;-69
2022/01/01 05:21:07;;;;;;;8.88;3.03;;;;;;;18.32;58.55;102301.41;4969332;28;20053;-68
2022/01/01 05:23:33;;;;;;;7.30;3.33;;;;;;;18.32;58.67;102292.59;4953536;28;20046;-69
2022/01/01 05:25:58;;;;;;;8.75;3.28;;;;;;;18.31;58.65;102296.22;4970941;28;20522;-69
2022/01/01 05:28:24;;;;;;;7.55;3.60;;;;;;;18.32;58.94;102303.22;4953281;28;20570;-69
2022/01/01 05:30:49;;;;;;;9.63;3.70;;;;;;;18.29;58.74;102292.81;4970494;28;20074;-69
2022/01/01 05:33:15;;;;;;;9.82;3.20;;;;;;;18.29;58.71;102304.28;4952855;28;20567;-69
2022/01/01 05:35:41;;;;;;;9.18;3.35;;;;;;;18.27;58.62;102292.91;4970593;28;20063;-69
2022/01/01 05:38:06;;;;;;;10.05;3.58;;;;;;;18.24;58.84;102285.16;4951964;28;20034;-69
2022/01/01 05:40:32;;;;;;;9.10;3.13;;;;;;;18.27;59.14;102277.81;4953011;28;20043;-69
2022/01/01 05:42:57;;;;;;;10.70;2.92;;;;;;;18.27;58.93;102276.97;4969602;28;20130;-69
2022/01/01 05:45:23;;;;;;;7.10;2.80;;;;;;;18.25;58.69;102271.75;4968172;28;20047;-69
2022/01/01 05:47:48;;;;;;;9.60;3.63;;;;;;;18.29;58.65;102271.53;4970473;28;20499;-69
2022/01/01 05:50:14;;;;;;;8.68;3.00;;;;;;;18.27;58.51;102280.47;4952691;28;20042;-69
2022/01/01 05:52:39;;;;;;;9.40;2.88;;;;;;;18.25;58.79;102276.22;4952769;28;20435;-69
2022/01/01 05:55:05;;;;;;;8.75;3.25;;;;;;;18.23;58.75;102284.28;4952610;28;20046;-69
2022/01/01 05:57:30;;;;;;;7.88;3.20;;;;;;;18.22;58.88;102285.22;4970257;28;20046;-69
2022/01/01 05:59:56;;;;;;;7.82;3.38;;;;;;;18.22;58.73;102277.28;4970233;28;20046;-69
2022/01/01 06:02:21;;;;;;;8.85;3.17;;;;;;;18.22;58.89;102271.09;4968509;28;20090;-69
2022/01/01 06:04:47;;;;;;;9.30;2.78;;;;;;;18.26;58.13;102275.25;4952611;28;20058;-69
2022/01/01 06:07:12;;;;;;;7.07;3.15;;;;;;;18.22;58.85;102276.41;4969749;28;20054;-69
2022/01/01 06:09:38;;;;;;;7.35;3.00;;;;;;;18.24;58.56;102285.16;4969851;28;20046;-69
2022/01/01 06:12:03;;;;;;;7.18;2.78;;;;;;;18.24;58.29;102295.78;4969624;28;20053;-68
2022/01/01 06:14:29;;;;;;;8.13;3.25;;;;;;;18.26;58.40;102296.50;4956155;28;20462;-69
2022/01/01 06:16:54;;;;;;;8.30;3.08;;;;;;;18.21;58.65;102294.16;4952601;28;20038;-69
2022/01/01 06:19:20;;;;;;;6.07;2.60;;;;;;;18.20;58.57;102295.09;4969477;28;20066;-69
2022/01/01 06:21:45;;;;;;;8.25;3.00;;;;;;;18.21;58.95;102296.81;4952352;28;20510;-69
2022/01/01 06:24:10;;;;;;;7.25;2.90;;;;;;;18.21;58.85;102294.16;4968844;28;20045;-69
2022/01/01 06:26:36;;;;;;;8.00;3.15;;;;;;;18.20;58.64;102295.09;4969624;28;20051;-69
2022/01/01 06:29:01;;;;;;;6.90;3.10;;;;;;;18.22;58.61;102298.53;4969190;28;20097;-67
2022/01/01 06:31:28;;;;;;;9.05;3.17;;;;;;;18.30;58.14;102294.50;4952272;28;20038;-69
2022/01/01 06:33:53;;;;;;;11.55;3.20;;;;;;;18.35;58.22;102298.56;4952207;28;20047;-69
2022/01/01 06:36:19;;;;;;;5.85;2.80;;;;;;;18.43;58.36;102306.03;4961199;28;20046;-69
2022/01/01 06:38:44;;;;;;;7.95;2.90;;;;;;;18.47;58.25;102307.53;4956087;28;20067;-69
2022/01/01 06:41:10;;;;;;;8.05;3.10;;;;;;;18.50;58.23;102302.00;4959341;28;20035;-69
2022/01/01 06:43:36;;;;;;;6.55;2.80;;;;;;;18.59;57.94;102313.81;4940231;28;20051;-69
2022/01/01 06:46:01;;;;;;;6.72;2.53;;;;;;;18.63;58.45;102297.56;4932411;28;20047;-68
2022/01/01 06:48:27;;;;;;;7.40;2.38;;;;;;;18.65;57.83;102300.13;4950025;28;20077;-69
2022/01/01 06:50:52;;;;;;;7.90;2.95;;;;;;;18.68;57.71;102286.63;4949927;28;20651;-68
2022/01/01 06:53:18;;;;;;;8.32;2.70;;;;;;;18.73;57.52;102285.34;4951168;28;20415;-66
2022/01/01 06:55:43;;;;;;;7.30;3.00;;;;;;;18.79;57.93;102285.91;4948202;28;20090;-69
2022/01/01 06:58:09;;;;;;;6.40;2.65;;;;;;;18.82;57.36;102272.41;4951492;28;20134;-70
2022/01/01 07:00:34;;;;;;;7.72;3.00;;;;;;;18.86;57.14;102276.53;4950974;28;20628;-70
2022/01/01 07:03:00;;;;;;;5.22;2.22;;;;;;;18.87;56.82;102288.91;4943514;28;20047;-69
2022/01/01 07:05:25;;;;;;;7.78;2.67;;;;;;;18.90;57.05;102305.50;4960478;28;20546;-69
2022/01/01 07:07:51;;;;;;;7.40;2.85;;;;;;;18.92;57.38;102308.03;4949789;28;20126;-70
2022/01/01 07:10:17;;;;;;;6.57;2.65;;;;;;;18.95;56.98;102310.47;4953120;28;20055;-69
2022/01/01 07:12:42;;;;;;;5.47;2.47;;;;;;;18.94;56.34;102306.13;4951540;28;20507;-69
2022/01/01 07:15:08;;;;;;;6.28;2.60;;;;;;;18.98;55.97;102302.28;4952085;28;20050;-69
2022/01/01 07:17:33;;;;;;;6.95;2.63;;;;;;;19.01;55.62;102303.88;4952975;28;20038;-70
2022/01/01 07:19:59;;;;;;;6.70;2.65;;;;;;;19.02;55.68;102302.94;4969332;28;20047;-70
2022/01/01 07:22:24;;;;;;;8.43;2.67;;;;;;;19.03;56.44;102300.19;4959566;28;20047;-69
2022/01/01 07:24:50;;;;;;;6.93;2.47;;;;;;;19.04;55.95;102309.84;4955678;28;20584;-69
2022/01/01 07:27:16;;;;;;;8.38;2.50;;;;;;;19.05;56.17;102305.38;4948105;28;20047;-69
2022/01/01 07:29:41;;;;;;;5.85;2.50;;;;;;;19.06;55.85;102315.91;4948384;29;20090;-69
2022/01/01 07:32:07;;;;;;;6.38;2.65;;;;;;;19.06;55.89;102310.59;4962266;28;20043;-68
2022/01/01 07:34:32;;;;;;;8.77;2.60;;;;;;;19.07;56.32;102314.09;4968546;28;20047;-69
2022/01/01 07:36:58;;;;;;;6.70;2.38;;;;;;;19.10;56.68;102325.38;4959930;28;20039;-70
2022/01/01 07:39:23;;;;;;;5.55;2.38;;;;;;;19.10;55.95;102317.41;4954359;28;20057;-69
2022/01/01 07:41:49;;;;;;;6.78;2.60;;;;;;;19.11;55.91;102323.56;4958459;28;20046;-69
2022/01/01 07:44:14;;;;;;;7.32;2.42;;;;;;;19.13;55.77;102316.34;4949300;28;20091;-69
2022/01/01 07:46:40;;;;;;;8.65;2.50;;;;;;;19.12;56.69;102310.19;4955152;28;20587;-69
2022/01/01 07:49:05;;;;;;;8.43;2.40;;;;;;;19.14;56.67;102312.72;4932703;28;20068;-69
2022/01/01 07:51:31;;;;;;;7.50;2.70;;;;;;;19.15;56.54;102315.28;4949540;29;20046;-69
2022/01/01 07:53:57;;;;;;;6.45;2.63;;;;;;;19.17;56.99;102318.66;4952260;28;20165;-69
2022/01/01 07:56:22;;;;;;;9.75;2.78;;;;;;;19.17;57.41;102321.31;4947946;29;20043;-69
2022/01/01 07:58:48;;;;;;;6.78;2.47;;;;;;;19.17;56.39;102315.16;4949674;28;20048;-71
2022/01/01 08:01:13;;;;;;;6.18;2.00;;;;;;;19.22;56.12;102321.03;4953265;28;20040;-70
2022/01/01 08:03:38;;;;;;;5.55;1.90;;;;;;;19.19;56.30;102308.78;4940429;29;20570;-72
2022/01/01 08:06:04;;;;;;;6.38;2.65;;;;;;;19.24;56.82;102318.25;4960870;28;20412;-72
2022/01/01 08:08:29;;;;;;;6.13;2.10;;;;;;;19.21;56.61;102321.13;4962729;28;20535;-73
2022/01/01 08:10:55;;;;;;;6.30;2.10;;;;;;;19.22;56.51;102323.69;4970745;28;20075;-72
2022/01/01 08:13:24;;;;;;;7.90;2.33;;;;;;;19.23;56.56;102321.88;4959994;28;20043;-72
2022/01/01 08:15:51;;;;;;;8.38;2.10;;;;;;;19.23;56.77;102327.19;4952490;28;20051;-73
2022/01/01 08:18:16;;;;;;;7.05;2.65;;;;;;;19.22;56.31;102325.50;4960279;28;20043;-69
2022/01/01 08:20:42;;;;;;;7.05;2.50;;;;;;;19.22;56.31;102325.50;4954813;28;20093;-70
2022/01/01 08:23:07;;;;;;;8.07;2.80;;;;;;;19.23;58.14;102321.88;4967029;28;20035;-70
2022/01/01 08:25:33;;;;;;;6.53;2.40;;;;;;;19.25;56.62;102330.59;4954679;28;20039;-74
2022/01/01 08:27:58;;;;;;;8.10;2.25;;;;;;;19.24;56.76;102323.56;4948902;29;20054;-70
2022/01/01 08:30:24;;;;;;;6.07;2.50;;;;;;;19.22;56.13;102317.53;4952118;28;20073;-71
2022/01/01 08:32:49;;;;;;;9.13;2.08;;;;;;;19.23;56.30;102311.22;4956013;28;20047;-70
2022/01/01 08:35:15;;;;;;;9.25;2.50;;;;;;;19.24;56.05;102307.59;4967360;28;20129;-70
2022/01/01 08:37:40;;;;;;;10.43;2.33;;;;;;;19.24;56.44;102297.84;4966587;28;20043;-70
2022/01/01 08:40:06;;;;;;;8.75;2.20;;;;;;;19.24;56.74;102294.28;4936972;28;20047;-70
2022/01/01 08:42:32;;;;;;;5.53;2.00;;;;;;;19.24;56.56;102294.28;4965118;28;20039;-70
2022/01/01 08:44:57;;;;;;;6.05;1.92;;;;;;;19.24;56.11;102295.16;4952983;28;20051;-70
2022/01/01 08:47:25;;;;;;;8.00;2.17;;;;;;;19.23;56.51;102290.78;4953629;28;20494;-70
2022/01/01 08:49:55;;;;;;;4.32;1.77;;;;;;;19.26;57.39;102289.72;4971112;28;20047;-66
2022/01/01 08:52:23;;;;;;;6.18;2.03;;;;;;;19.21;56.05;102274.09;4970282;28;20050;-68
2022/01/01 08:54:51;;;;;;;6.80;2.75;;;;;;;19.17;57.43;102278.75;4966036;28;20055;-68
2022/01/01 08:57:16;;;;;;;7.03;2.22;;;;;;;19.15;58.40;102274.53;4970154;28;20038;-67
2022/01/01 08:59:41;;;;;;;6.50;2.40;;;;;;;19.14;58.39;102270.16;4970894;28;20415;-68
2022/01/01 09:02:07;;;;;;;7.32;2.22;;;;;;;19.15;57.78;102280.69;4970838;28;20415;-67
2022/01/01 09:04:33;;;;;;;7.10;2.33;;;;;;;19.16;57.99;102271.75;4936666;28;20043;-68
2022/01/01 09:06:58;;;;;;;4.72;2.00;;;;;;;19.16;58.13;102271.75;4950717;28;20134;-67
2022/01/01 09:09:23;;;;;;;6.60;2.50;;;;;;;19.13;59.12;102261.31;4966885;28;20463;-67
2022/01/01 09:11:49;;;;;;;6.03;2.47;;;;;;;19.13;58.35;102253.34;4970887;28;20057;-68
2022/01/01 09:14:15;;;;;;;7.25;2.17;;;;;;;19.12;58.46;102262.28;4952547;28;20097;-67
2022/01/01 09:16:40;;;;;;;7.72;2.60;;;;;;;19.13;57.28;102261.31;4953889;28;20122;-67
2022/01/01 09:19:06;;;;;;;7.15;2.08;;;;;;;19.16;58.37;102258.44;4970162;28;20050;-67
2022/01/01 09:21:31;;;;;;;6.88;2.17;;;;;;;19.16;58.20;102257.59;4953640;28;20050;-67
2022/01/01 09:23:57;;;;;;;5.65;2.00;;;;;;;19.13;58.67;102245.34;4970866;28;20558;-68
2022/01/01 09:26:23;;;;;;;6.97;2.42;;;;;;;19.13;58.99;102242.69;4970436;28;20066;-67
2022/01/01 09:28:48;;;;;;;6.55;2.22;;;;;;;19.12;58.91;102235.69;4952608;28;20051;-68
2022/01/01 09:31:14;;;;;;;7.72;2.33;;;;;;;19.11;58.12;102239.28;4936611;28;20047;-68
2022/01/01 09:33:39;;;;;;;5.20;2.05;;;;;;;19.10;59.27;102245.56;4953521;28;20035;-68
2022/01/01 09:36:05;;;;;;;8.07;2.13;;;;;;;19.09;58.60;102238.56;4969878;28;20070;-67
2022/01/01 09:38:31;;;;;;;7.70;2.15;;;;;;;19.08;58.84;102228.88;4950043;29;20053;-68
2022/01/01 09:40:57;;;;;;;6.40;2.03;;;;;;;19.07;58.38;102234.31;4950123;28;20130;-67
2022/01/01 09:43:23;;;;;;;7.28;2.30;;;;;;;19.07;59.10;102247.59;4950849;28;20415;-67
2022/01/01 09:45:49;;;;;;;6.50;2.55;;;;;;;19.05;58.44;102245.03;4952266;28;20043;-67
2022/01/01 09:48:15;;;;;;;6.05;2.35;;;;;;;19.05;59.00;102250.34;4956634;28;20093;-68
2022/01/01 09:50:42;;;;;;;6.38;2.33;;;;;;;19.02;58.70;102247.94;4953515;28;20732;-68
2022/01/01 09:53:07;;;;;;;6.75;2.25;;;;;;;19.03;58.51;102239.00;4969952;28;20142;-68
2022/01/01 09:55:34;;;;;;;4.10;1.80;;;;;;;19.02;58.39;102236.44;4950059;28;20552;-68
2022/01/01 09:58:00;;;;;;;9.52;2.80;;;;;;;19.03;58.72;102238.16;4949149;28;20050;-67
2022/01/01 10:00:25;;;;;;;6.55;2.03;;;;;;;19.06;59.11;102243.25;4948927;28;20047;-68
2022/01/01 10:02:50;;;;;;;6.50;2.25;;;;;;;19.08;58.22;102247.47;4957050;28;20452;-68
2022/01/01 10:05:16;;;;;;;11.02;2.63;;;;;;;19.08;59.06;102244.81;4963054;28;20081;-67
2022/01/01 10:07:41;;;;;;;5.07;2.20;;;;;;;19.11;59.49;102247.25;4943178;28;20468;-67
2022/01/01 10:10:20;;;;;;;6.70;2.47;;;;;;;19.13;58.90;102249.84;4969338;28;20051;-67
2022/01/01 10:12:46;;;;;;;8.32;2.70;;;;;;;19.16;59.08;102257.59;4966974;28;20058;-67
2022/01/01 10:15:11;;;;;;;10.63;2.58;;;;;;;19.14;59.62;102265.69;4933310;28;20047;-66
2022/01/01 10:17:37;;;;;;;5.28;2.40;;;;;;;19.16;58.86;102254.94;4951931;28;20565;-67
2022/01/01 10:20:03;;;;;;;7.53;2.60;;;;;;;19.12;59.02;102272.94;4935685;28;20049;-66
2022/01/01 10:22:29;;;;;;;6.03;2.30;;;;;;;19.16;59.03;102277.06;4943999;28;20043;-67
2022/01/01 10:28:04;;;;;;;4.90;2.28;;;;;;;19.15;58.69;102272.72;4936005;28;20034;-67
2022/01/01 10:30:31;;;;;;;7.45;2.75;;;;;;;19.13;59.87;102269.31;4958084;28;20038;-67
2022/01/01 10:33:13;;;;;;;7.07;2.30;;;;;;;19.15;59.10;102267.41;4958741;28;20118;-67
2022/01/01 10:35:52;;;;;;;7.22;2.75;;;;;;;19.14;59.41;102271.00;4957684;28;20503;-67
2022/01/01 10:38:20;;;;;;;5.65;2.53;;;;;;;19.15;59.33;102259.41;4953871;28;20049;-67
2022/01/01 10:40:45;;;;;;;9.98;2.92;;;;;;;19.18;59.64;102259.19;4950823;28;20204;-67
2022/01/01 10:43:11;;;;;;;8.43;2.88;;;;;;;19.18;58.99;102245.06;4937066;28;20134;-66
2022/01/01 10:45:40;;;;;;;7.43;3.17;;;;;;;19.14;59.10;102251.53;4957911;28;20066;-67
2022/01/01 10:48:18;;;;;;;6.18;2.88;;;;;;;19.15;59.14;102238.13;4945897;28;20133;-67
2022/01/01 10:50:45;;;;;;;5.60;2.53;;;;;;;19.17;59.17;102238.00;4957207;28;20142;-67
2022/01/01 10:53:23;;;;;;;8.73;3.30;;;;;;;19.19;58.89;102236.09;4934547;28;20039;-67
2022/01/01 10:55:59;;;;;;;10.07;4.93;;;;;;;19.09;59.38;102235.91;4951567;28;20047;-68
2022/01/01 10:58:28;;;;;;;7.70;3.70;;;;;;;19.15;58.36;102230.16;4882497;28;21305;-68
2022/01/01 11:01:01;;;;;;;7.50;3.80;;;;;;;19.19;59.44;102230.78;4962118;28;20043;-68
2022/01/01 11:03:28;;;;;;;5.55;2.80;;;;;;;19.25;58.30;102218.84;4945296;28;20433;-69
2022/01/01 11:06:15;;;;;;;6.70;3.15;;;;;;;19.26;56.79;102220.53;4953541;28;20049;-70
2022/01/01 11:08:43;;;;;;;6.45;3.40;;;;;;;19.30;58.32;102224.69;4941733;28;20066;-70
2022/01/01 11:11:10;;;;;;;8.13;3.30;;;;;;;19.33;57.46;102235.09;4950772;28;20046;-69
2022/01/01 11:13:36;;;;;;;6.53;3.00;;;;;;;19.32;56.72;102210.31;4961477;28;20061;-69
2022/01/01 11:16:02;;;;;;;7.07;3.38;;;;;;;19.34;56.28;102191.59;4947213;28;20539;-68
2022/01/01 11:18:27;;;;;;;7.20;3.08;;;;;;;19.34;56.01;102180.94;4937351;28;20051;-69
2022/01/01 11:20:52;;;;;;;10.07;5.20;;;;;;;19.32;58.75;102186.34;4941434;28;20051;-69
2022/01/01 11:23:21;;;;;;;6.63;3.63;;;;;;;19.32;56.85;102194.34;4934502;29;20131;-69
2022/01/01 11:25:46;;;;;;;9.73;3.80;;;;;;;19.36;56.76;102192.31;4941542;28;20048;-69